CheckWX is a tool to help pilots better visualize weather data.  It is not intended as a substitute for an official pre-flight weather briefing.

07:25:56 UTC

RJOO TAF
Osaka International Airport
Osaka, Japan
TAF RJOO 190506Z 1906/2012 22008KT 9999 FEW025 SCT040 BECMG 1909/1911 24005KT BECMG 2003/2006 22006KT BECMG 2009/2012 32005KT

Jun-19@
06:00 UTC

Jun-19 @ 06:00 UTC

Jun-19@
09:00 UTC

Jun-19 @ 09:00 UTC

TAF RJOO 190506Z 1906/2012 22008KT 9999 FEW025 SCT040
Wind
  • 220° at 8 KTS
Cloud Levels
  • Few at 2,500' AGL
  • Scattered at 4,000' AGL

Jun-19@
09:00 UTC

Jun-19 @ 09:00 UTC

Jun-20@
03:00 UTC

Jun-20 @ 03:00 UTC

BECMG 1909/1911 24005KT

Becoming

Becoming Conditions expected by Wed, Jun 19, 2019 @ 11:00 UTC

Wind
  • 240° at 5 KTS
Cloud Levels
  • Few at 2,500' AGL
  • Scattered at 4,000' AGL

Jun-20@
03:00 UTC

Jun-20 @ 03:00 UTC

Jun-20@
09:00 UTC

Jun-20 @ 09:00 UTC

BECMG 2003/2006 22006KT

Becoming

Becoming Conditions expected by Thu, Jun 20, 2019 @ 06:00 UTC

Wind
  • 220° at 6 KTS
Cloud Levels
  • Few at 2,500' AGL
  • Scattered at 4,000' AGL

Jun-20@
09:00 UTC

Jun-20 @ 09:00 UTC

Jun-20@
12:00 UTC

Jun-20 @ 12:00 UTC

BECMG 2009/2012 32005KT

Becoming

Becoming Conditions expected by Thu, Jun 20, 2019 @ 12:00 UTC

Wind
  • 320° at 5 KTS
Cloud Levels
  • Few at 2,500' AGL
  • Scattered at 4,000' AGL